sensor_id;sensor_type;location;lat;lon;timestamp;P1;durP1;ratioP1;P2;durP2;ratioP2
6217;SDS011;3142;48.206;11.550;2022-10-01T00:00:54;10.63;;;7.87;;
6217;SDS011;3142;48.206;11.550;2022-10-01T00:03:22;10.80;;;7.73;;
6217;SDS011;3142;48.206;11.550;2022-10-01T00:05:56;11.40;;;8.73;;
6217;SDS011;3142;48.206;11.550;2022-10-01T00:08:25;8.80;;;7.90;;
6217;SDS011;3142;48.206;11.550;2022-10-01T00:10:52;10.40;;;8.90;;
6217;SDS011;3142;48.206;11.550;2022-10-01T00:13:19;11.10;;;9.97;;
6217;SDS011;3142;48.206;11.550;2022-10-01T00:15:45;14.80;;;10.80;;
6217;SDS011;3142;48.206;11.550;2022-10-01T00:18:12;12.40;;;10.77;;
6217;SDS011;3142;48.206;11.550;2022-10-01T00:20:39;12.97;;;10.10;;
6217;SDS011;3142;48.206;11.550;2022-10-01T00:23:07;13.10;;;11.70;;
6217;SDS011;3142;48.206;11.550;2022-10-01T00:25:35;12.97;;;11.17;;
6217;SDS011;3142;48.206;11.550;2022-10-01T00:28:01;14.47;;;11.30;;
6217;SDS011;3142;48.206;11.550;2022-10-01T00:30:28;13.60;;;11.07;;
6217;SDS011;3142;48.206;11.550;2022-10-01T00:32:54;12.67;;;11.37;;
6217;SDS011;3142;48.206;11.550;2022-10-01T00:35:21;12.73;;;11.43;;
6217;SDS011;3142;48.206;11.550;2022-10-01T00:37:48;14.33;;;11.60;;
6217;SDS011;3142;48.206;11.550;2022-10-01T00:40:16;12.37;;;11.07;;
6217;SDS011;3142;48.206;11.550;2022-10-01T00:42:46;12.73;;;11.27;;
6217;SDS011;3142;48.206;11.550;2022-10-01T00:45:14;14.47;;;11.67;;
6217;SDS011;3142;48.206;11.550;2022-10-01T00:47:42;13.03;;;11.13;;
6217;SDS011;3142;48.206;11.550;2022-10-01T00:50:14;14.90;;;11.93;;
6217;SDS011;3142;48.206;11.550;2022-10-01T00:52:47;12.17;;;10.87;;
6217;SDS011;3142;48.206;11.550;2022-10-01T00:55:18;14.53;;;13.03;;
6217;SDS011;3142;48.206;11.550;2022-10-01T00:57:50;12.70;;;11.40;;
6217;SDS011;3142;48.206;11.550;2022-10-01T01:00:17;15.77;;;12.33;;
6217;SDS011;3142;48.206;11.550;2022-10-01T01:02:44;16.37;;;11.43;;
6217;SDS011;3142;48.206;11.550;2022-10-01T01:05:10;12.97;;;11.50;;
6217;SDS011;3142;48.206;11.550;2022-10-01T01:07:39;12.87;;;11.40;;
6217;SDS011;3142;48.206;11.550;2022-10-01T01:10:10;12.90;;;11.53;;
6217;SDS011;3142;48.206;11.550;2022-10-01T01:12:42;13.57;;;11.83;;
6217;SDS011;3142;48.206;11.550;2022-10-01T01:15:24;15.47;;;11.43;;
6217;SDS011;3142;48.206;11.550;2022-10-01T01:18:00;14.07;;;10.53;;
6217;SDS011;3142;48.206;11.550;2022-10-01T01:20:39;13.47;;;11.07;;
6217;SDS011;3142;48.206;11.550;2022-10-01T01:23:28;11.37;;;10.27;;
6217;SDS011;3142;48.206;11.550;2022-10-01T01:26:07;14.20;;;11.10;;
6217;SDS011;3142;48.206;11.550;2022-10-01T01:28:46;13.13;;;11.67;;
6217;SDS011;3142;48.206;11.550;2022-10-01T01:31:17;13.40;;;11.43;;
6217;SDS011;3142;48.206;11.550;2022-10-01T01:33:48;13.17;;;11.80;;
6217;SDS011;3142;48.206;11.550;2022-10-01T01:36:17;14.97;;;12.03;;
6217;SDS011;3142;48.206;11.550;2022-10-01T01:38:48;13.07;;;11.17;;
6217;SDS011;3142;48.206;11.550;2022-10-01T01:41:18;15.43;;;11.17;;
6217;SDS011;3142;48.206;11.550;2022-10-01T01:43:48;12.63;;;11.10;;
6217;SDS011;3142;48.206;11.550;2022-10-01T01:46:18;13.60;;;10.77;;
6217;SDS011;3142;48.206;11.550;2022-10-01T01:48:46;12.80;;;10.63;;
6217;SDS011;3142;48.206;11.550;2022-10-01T01:51:19;12.87;;;11.07;;
6217;SDS011;3142;48.206;11.550;2022-10-01T01:53:50;13.20;;;11.73;;
6217;SDS011;3142;48.206;11.550;2022-10-01T01:56:16;11.63;;;10.43;;
6217;SDS011;3142;48.206;11.550;2022-10-01T01:58:43;12.53;;;10.93;;
6217;SDS011;3142;48.206;11.550;2022-10-01T02:04:03;12.87;;;11.20;;
6217;SDS011;3142;48.206;11.550;2022-10-01T02:06:33;12.03;;;10.70;;
6217;SDS011;3142;48.206;11.550;2022-10-01T02:09:13;11.70;;;10.50;;
6217;SDS011;3142;48.206;11.550;2022-10-01T02:11:45;12.93;;;10.47;;
6217;SDS011;3142;48.206;11.550;2022-10-01T02:14:25;12.17;;;10.87;;
6217;SDS011;3142;48.206;11.550;2022-10-01T02:17:03;12.33;;;11.00;;
6217;SDS011;3142;48.206;11.550;2022-10-01T02:19:39;14.33;;;11.53;;
6217;SDS011;3142;48.206;11.550;2022-10-01T02:22:10;12.43;;;11.13;;
6217;SDS011;3142;48.206;11.550;2022-10-01T02:24:38;26.73;;;17.27;;
6217;SDS011;3142;48.206;11.550;2022-10-01T02:27:10;15.70;;;13.63;;
6217;SDS011;3142;48.206;11.550;2022-10-01T02:29:40;15.53;;;11.07;;
6217;SDS011;3142;48.206;11.550;2022-10-01T02:32:11;14.30;;;11.43;;
6217;SDS011;3142;48.206;11.550;2022-10-01T02:34:41;11.73;;;10.53;;
6217;SDS011;3142;48.206;11.550;2022-10-01T02:37:09;12.93;;;11.17;;
6217;SDS011;3142;48.206;11.550;2022-10-01T02:39:37;12.40;;;11.07;;
6217;SDS011;3142;48.206;11.550;2022-10-01T02:42:06;11.27;;;10.17;;
6217;SDS011;3142;48.206;11.550;2022-10-01T02:44:35;12.67;;;11.03;;
6217;SDS011;3142;48.206;11.550;2022-10-01T02:47:06;13.80;;;11.70;;
6217;SDS011;3142;48.206;11.550;2022-10-01T02:49:38;12.23;;;10.73;;
6217;SDS011;3142;48.206;11.550;2022-10-01T02:52:07;11.73;;;10.53;;
6217;SDS011;3142;48.206;11.550;2022-10-01T02:54:40;11.53;;;10.33;;
6217;SDS011;3142;48.206;11.550;2022-10-01T02:57:11;12.90;;;11.00;;
6217;SDS011;3142;48.206;11.550;2022-10-01T02:59:51;14.30;;;11.23;;
6217;SDS011;3142;48.206;11.550;2022-10-01T03:02:18;11.30;;;10.10;;
6217;SDS011;3142;48.206;11.550;2022-10-01T03:04:47;12.20;;;10.17;;
6217;SDS011;3142;48.206;11.550;2022-10-01T03:07:14;19.23;;;10.83;;
6217;SDS011;3142;48.206;11.550;2022-10-01T03:09:40;11.93;;;10.73;;
6217;SDS011;3142;48.206;11.550;2022-10-01T03:12:07;12.17;;;10.87;;
6217;SDS011;3142;48.206;11.550;2022-10-01T03:14:34;15.27;;;10.20;;
6217;SDS011;3142;48.206;11.550;2022-10-01T03:17:03;10.80;;;9.70;;
6217;SDS011;3142;48.206;11.550;2022-10-01T03:19:30;11.23;;;10.03;;
6217;SDS011;3142;48.206;11.550;2022-10-01T03:21:58;12.53;;;10.97;;
6217;SDS011;3142;48.206;11.550;2022-10-01T03:24:24;12.07;;;10.67;;
6217;SDS011;3142;48.206;11.550;2022-10-01T03:26:50;10.50;;;9.50;;
6217;SDS011;3142;48.206;11.550;2022-10-01T03:29:17;11.47;;;10.07;;
6217;SDS011;3142;48.206;11.550;2022-10-01T03:31:43;11.47;;;9.90;;
6217;SDS011;3142;48.206;11.550;2022-10-01T03:34:10;11.30;;;10.10;;
6217;SDS011;3142;48.206;11.550;2022-10-01T03:36:37;13.90;;;10.13;;
6217;SDS011;3142;48.206;11.550;2022-10-01T03:39:05;11.40;;;10.20;;
6217;SDS011;3142;48.206;11.550;2022-10-01T03:41:32;10.77;;;9.67;;
6217;SDS011;3142;48.206;11.550;2022-10-01T03:43:58;10.90;;;9.77;;
6217;SDS011;3142;48.206;11.550;2022-10-01T03:46:25;10.67;;;8.87;;
6217;SDS011;3142;48.206;11.550;2022-10-01T03:48:51;12.10;;;9.40;;
6217;SDS011;3142;48.206;11.550;2022-10-01T03:51:18;9.50;;;8.33;;
6217;SDS011;3142;48.206;11.550;2022-10-01T03:53:44;9.90;;;8.63;;
6217;SDS011;3142;48.206;11.550;2022-10-01T03:56:12;10.73;;;8.83;;
6217;SDS011;3142;48.206;11.550;2022-10-01T03:58:39;12.93;;;9.20;;
6217;SDS011;3142;48.206;11.550;2022-10-01T04:01:06;11.77;;;8.73;;
6217;SDS011;3142;48.206;11.550;2022-10-01T04:03:32;11.37;;;9.50;;
6217;SDS011;3142;48.206;11.550;2022-10-01T04:05:59;12.53;;;8.93;;
6217;SDS011;3142;48.206;11.550;2022-10-01T04:08:25;10.70;;;8.23;;
6217;SDS011;3142;48.206;11.550;2022-10-01T04:10:52;9.50;;;8.17;;
6217;SDS011;3142;48.206;11.550;2022-10-01T04:13:19;10.40;;;8.73;;
6217;SDS011;3142;48.206;11.550;2022-10-01T04:15:46;9.90;;;8.33;;
6217;SDS011;3142;48.206;11.550;2022-10-01T04:18:13;8.07;;;7.27;;
6217;SDS011;3142;48.206;11.550;2022-10-01T04:20:41;10.30;;;7.17;;
6217;SDS011;3142;48.206;11.550;2022-10-01T04:23:08;7.63;;;6.90;;
6217;SDS011;3142;48.206;11.550;2022-10-01T04:25:34;8.73;;;7.83;;
6217;SDS011;3142;48.206;11.550;2022-10-01T04:28:02;9.47;;;7.77;;
6217;SDS011;3142;48.206;11.550;2022-10-01T04:30:31;9.17;;;7.60;;
6217;SDS011;3142;48.206;11.550;2022-10-01T04:33:00;8.03;;;7.07;;
6217;SDS011;3142;48.206;11.550;2022-10-01T04:35:27;8.70;;;7.67;;
6217;SDS011;3142;48.206;11.550;2022-10-01T04:37:54;14.20;;;9.43;;
6217;SDS011;3142;48.206;11.550;2022-10-01T04:40:22;9.77;;;8.67;;
6217;SDS011;3142;48.206;11.550;2022-10-01T04:42:48;8.73;;;7.70;;
6217;SDS011;3142;48.206;11.550;2022-10-01T04:45:15;9.10;;;8.10;;
6217;SDS011;3142;48.206;11.550;2022-10-01T04:47:49;8.50;;;7.30;;
6217;SDS011;3142;48.206;11.550;2022-10-01T04:50:18;9.93;;;7.67;;
6217;SDS011;3142;48.206;11.550;2022-10-01T04:52:45;9.47;;;6.93;;
6217;SDS011;3142;48.206;11.550;2022-10-01T04:55:13;7.37;;;6.63;;
6217;SDS011;3142;48.206;11.550;2022-10-01T04:57:40;9.10;;;7.57;;
6217;SDS011;3142;48.206;11.550;2022-10-01T05:00:08;7.60;;;6.73;;
6217;SDS011;3142;48.206;11.550;2022-10-01T05:02:37;7.57;;;6.77;;
6217;SDS011;3142;48.206;11.550;2022-10-01T05:05:05;7.63;;;6.80;;
6217;SDS011;3142;48.206;11.550;2022-10-01T05:07:33;8.33;;;7.10;;
6217;SDS011;3142;48.206;11.550;2022-10-01T05:10:00;7.30;;;6.50;;
6217;SDS011;3142;48.206;11.550;2022-10-01T05:12:27;6.33;;;5.73;;
6217;SDS011;3142;48.206;11.550;2022-10-01T05:14:54;8.10;;;6.17;;
6217;SDS011;3142;48.206;11.550;2022-10-01T05:17:21;9.87;;;6.33;;
6217;SDS011;3142;48.206;11.550;2022-10-01T05:19:48;5.93;;;5.43;;
6217;SDS011;3142;48.206;11.550;2022-10-01T05:22:17;5.90;;;5.30;;
6217;SDS011;3142;48.206;11.550;2022-10-01T05:24:43;6.43;;;5.57;;
6217;SDS011;3142;48.206;11.550;2022-10-01T05:27:10;6.50;;;5.30;;
6217;SDS011;3142;48.206;11.550;2022-10-01T05:29:37;6.53;;;5.47;;
6217;SDS011;3142;48.206;11.550;2022-10-01T05:32:04;6.87;;;6.10;;
6217;SDS011;3142;48.206;11.550;2022-10-01T05:34:30;8.00;;;6.33;;
6217;SDS011;3142;48.206;11.550;2022-10-01T05:36:57;6.63;;;5.80;;
6217;SDS011;3142;48.206;11.550;2022-10-01T05:39:25;6.50;;;5.90;;
6217;SDS011;3142;48.206;11.550;2022-10-01T05:41:51;9.37;;;6.03;;
6217;SDS011;3142;48.206;11.550;2022-10-01T05:44:19;6.00;;;5.50;;
6217;SDS011;3142;48.206;11.550;2022-10-01T05:46:46;6.47;;;5.63;;
6217;SDS011;3142;48.206;11.550;2022-10-01T05:49:12;7.00;;;5.80;;
6217;SDS011;3142;48.206;11.550;2022-10-01T05:51:40;6.37;;;5.70;;
6217;SDS011;3142;48.206;11.550;2022-10-01T05:54:06;7.23;;;6.10;;
6217;SDS011;3142;48.206;11.550;2022-10-01T05:56:34;6.50;;;5.73;;
6217;SDS011;3142;48.206;11.550;2022-10-01T05:59:01;8.23;;;5.80;;
6217;SDS011;3142;48.206;11.550;2022-10-01T06:01:28;6.13;;;5.53;;
6217;SDS011;3142;48.206;11.550;2022-10-01T06:03:56;7.57;;;6.30;;
6217;SDS011;3142;48.206;11.550;2022-10-01T06:06:22;7.03;;;6.33;;
6217;SDS011;3142;48.206;11.550;2022-10-01T06:08:49;9.47;;;6.20;;
6217;SDS011;3142;48.206;11.550;2022-10-01T06:11:16;7.20;;;5.60;;
6217;SDS011;3142;48.206;11.550;2022-10-01T06:13:44;8.13;;;6.67;;
6217;SDS011;3142;48.206;11.550;2022-10-01T06:16:10;6.83;;;6.13;;
6217;SDS011;3142;48.206;11.550;2022-10-01T06:18:37;7.67;;;6.33;;
6217;SDS011;3142;48.206;11.550;2022-10-01T06:21:04;12.07;;;6.60;;
6217;SDS011;3142;48.206;11.550;2022-10-01T06:23:31;6.80;;;6.10;;
6217;SDS011;3142;48.206;11.550;2022-10-01T06:25:58;9.17;;;6.73;;
6217;SDS011;3142;48.206;11.550;2022-10-01T06:28:25;7.37;;;6.67;;
6217;SDS011;3142;48.206;11.550;2022-10-01T06:30:53;7.10;;;6.27;;
6217;SDS011;3142;48.206;11.550;2022-10-01T06:33:19;7.13;;;6.13;;
6217;SDS011;3142;48.206;11.550;2022-10-01T06:35:46;7.63;;;6.90;;
6217;SDS011;3142;48.206;11.550;2022-10-01T06:38:14;7.10;;;6.40;;
6217;SDS011;3142;48.206;11.550;2022-10-01T06:40:42;8.20;;;6.53;;
6217;SDS011;3142;48.206;11.550;2022-10-01T06:43:09;9.00;;;6.43;;
6217;SDS011;3142;48.206;11.550;2022-10-01T06:45:36;7.63;;;6.90;;
6217;SDS011;3142;48.206;11.550;2022-10-01T06:48:05;8.73;;;6.77;;
6217;SDS011;3142;48.206;11.550;2022-10-01T06:50:33;6.37;;;5.77;;
6217;SDS011;3142;48.206;11.550;2022-10-01T06:53:00;7.93;;;6.40;;
6217;SDS011;3142;48.206;11.550;2022-10-01T06:55:27;6.47;;;5.73;;
6217;SDS011;3142;48.206;11.550;2022-10-01T06:57:56;7.63;;;6.23;;
6217;SDS011;3142;48.206;11.550;2022-10-01T07:00:24;6.27;;;5.67;;
6217;SDS011;3142;48.206;11.550;2022-10-01T07:02:51;7.57;;;6.60;;
6217;SDS011;3142;48.206;11.550;2022-10-01T07:05:20;8.23;;;6.50;;
6217;SDS011;3142;48.206;11.550;2022-10-01T07:07:47;6.20;;;5.60;;
6217;SDS011;3142;48.206;11.550;2022-10-01T07:10:14;7.17;;;5.93;;
6217;SDS011;3142;48.206;11.550;2022-10-01T07:12:44;9.17;;;5.87;;
6217;SDS011;3142;48.206;11.550;2022-10-01T07:15:13;6.77;;;5.80;;
6217;SDS011;3142;48.206;11.550;2022-10-01T07:17:41;7.07;;;6.00;;
6217;SDS011;3142;48.206;11.550;2022-10-01T07:20:09;6.50;;;5.80;;
6217;SDS011;3142;48.206;11.550;2022-10-01T07:22:37;5.50;;;5.00;;
6217;SDS011;3142;48.206;11.550;2022-10-01T07:25:04;7.13;;;5.73;;
6217;SDS011;3142;48.206;11.550;2022-10-01T07:27:32;5.67;;;5.10;;
6217;SDS011;3142;48.206;11.550;2022-10-01T07:29:59;5.67;;;4.97;;
6217;SDS011;3142;48.206;11.550;2022-10-01T07:32:25;5.40;;;4.90;;
6217;SDS011;3142;48.206;11.550;2022-10-01T07:34:52;6.60;;;5.33;;
6217;SDS011;3142;48.206;11.550;2022-10-01T07:37:18;6.27;;;4.70;;
6217;SDS011;3142;48.206;11.550;2022-10-01T07:39:46;5.43;;;4.63;;
6217;SDS011;3142;48.206;11.550;2022-10-01T07:42:13;5.13;;;4.47;;
6217;SDS011;3142;48.206;11.550;2022-10-01T07:44:40;4.30;;;3.90;;
6217;SDS011;3142;48.206;11.550;2022-10-01T07:47:07;4.40;;;4.00;;
6217;SDS011;3142;48.206;11.550;2022-10-01T07:49:33;6.47;;;4.20;;
6217;SDS011;3142;48.206;11.550;2022-10-01T07:52:00;4.67;;;3.87;;
6217;SDS011;3142;48.206;11.550;2022-10-01T07:54:27;6.10;;;4.50;;
6217;SDS011;3142;48.206;11.550;2022-10-01T07:56:54;4.50;;;3.63;;
6217;SDS011;3142;48.206;11.550;2022-10-01T07:59:21;4.10;;;3.70;;
6217;SDS011;3142;48.206;11.550;2022-10-01T08:01:48;4.00;;;3.60;;
6217;SDS011;3142;48.206;11.550;2022-10-01T08:04:15;4.70;;;2.93;;
6217;SDS011;3142;48.206;11.550;2022-10-01T08:06:59;3.87;;;3.10;;
6217;SDS011;3142;48.206;11.550;2022-10-01T08:09:25;2.80;;;2.60;;
6217;SDS011;3142;48.206;11.550;2022-10-01T08:11:52;3.63;;;2.80;;
6217;SDS011;3142;48.206;11.550;2022-10-01T08:14:20;3.77;;;2.40;;
6217;SDS011;3142;48.206;11.550;2022-10-01T08:16:47;3.67;;;2.73;;
6217;SDS011;3142;48.206;11.550;2022-10-01T08:19:13;3.47;;;2.60;;
6217;SDS011;3142;48.206;11.550;2022-10-01T08:21:40;2.60;;;2.40;;
6217;SDS011;3142;48.206;11.550;2022-10-01T08:24:07;2.97;;;2.53;;
6217;SDS011;3142;48.206;11.550;2022-10-01T08:26:34;2.00;;;1.90;;
6217;SDS011;3142;48.206;11.550;2022-10-01T08:29:00;2.63;;;2.33;;
6217;SDS011;3142;48.206;11.550;2022-10-01T08:31:28;6.80;;;3.77;;
6217;SDS011;3142;48.206;11.550;2022-10-01T08:33:55;6.30;;;4.97;;
6217;SDS011;3142;48.206;11.550;2022-10-01T08:36:22;3.23;;;2.07;;
6217;SDS011;3142;48.206;11.550;2022-10-01T08:38:48;2.17;;;2.00;;
6217;SDS011;3142;48.206;11.550;2022-10-01T08:41:18;2.30;;;2.07;;
6217;SDS011;3142;48.206;11.550;2022-10-01T08:43:57;3.30;;;2.30;;
6217;SDS011;3142;48.206;11.550;2022-10-01T08:46:26;3.40;;;2.27;;
6217;SDS011;3142;48.206;11.550;2022-10-01T08:49:00;2.20;;;1.97;;
6217;SDS011;3142;48.206;11.550;2022-10-01T08:51:34;2.30;;;1.97;;
6217;SDS011;3142;48.206;11.550;2022-10-01T08:54:08;2.30;;;2.10;;
6217;SDS011;3142;48.206;11.550;2022-10-01T08:56:44;2.37;;;1.90;;
6217;SDS011;3142;48.206;11.550;2022-10-01T08:59:13;2.47;;;1.83;;
6217;SDS011;3142;48.206;11.550;2022-10-01T09:01:54;2.00;;;1.90;;
6217;SDS011;3142;48.206;11.550;2022-10-01T09:04:21;2.20;;;2.00;;
6217;SDS011;3142;48.206;11.550;2022-10-01T09:06:49;3.77;;;2.20;;
6217;SDS011;3142;48.206;11.550;2022-10-01T09:09:24;2.57;;;2.00;;
6217;SDS011;3142;48.206;11.550;2022-10-01T09:12:04;3.67;;;1.60;;
6217;SDS011;3142;48.206;11.550;2022-10-01T09:14:46;2.43;;;1.60;;
6217;SDS011;3142;48.206;11.550;2022-10-01T09:17:29;1.80;;;1.50;;
6217;SDS011;3142;48.206;11.550;2022-10-01T09:20:10;1.90;;;1.80;;
6217;SDS011;3142;48.206;11.550;2022-10-01T09:22:45;3.17;;;1.90;;
6217;SDS011;3142;48.206;11.550;2022-10-01T09:25:20;2.10;;;1.97;;
6217;SDS011;3142;48.206;11.550;2022-10-01T09:27:48;2.23;;;2.00;;
6217;SDS011;3142;48.206;11.550;2022-10-01T09:30:17;3.13;;;1.60;;
6217;SDS011;3142;48.206;11.550;2022-10-01T09:32:48;1.93;;;1.80;;
6217;SDS011;3142;48.206;11.550;2022-10-01T09:38:08;2.03;;;1.60;;
6217;SDS011;3142;48.206;11.550;2022-10-01T09:40:44;2.07;;;1.77;;
6217;SDS011;3142;48.206;11.550;2022-10-01T09:43:15;1.87;;;1.57;;
6217;SDS011;3142;48.206;11.550;2022-10-01T09:45:43;1.57;;;1.40;;
6217;SDS011;3142;48.206;11.550;2022-10-01T09:48:14;1.73;;;1.63;;
6217;SDS011;3142;48.206;11.550;2022-10-01T09:50:49;3.50;;;1.70;;
6217;SDS011;3142;48.206;11.550;2022-10-01T09:53:21;5.60;;;1.97;;
6217;SDS011;3142;48.206;11.550;2022-10-01T09:55:52;2.43;;;1.80;;
6217;SDS011;3142;48.206;11.550;2022-10-01T09:58:22;3.77;;;1.90;;
6217;SDS011;3142;48.206;11.550;2022-10-01T10:00:50;2.77;;;1.77;;
6217;SDS011;3142;48.206;11.550;2022-10-01T10:03:23;1.70;;;1.60;;
6217;SDS011;3142;48.206;11.550;2022-10-01T10:05:52;2.40;;;1.70;;
6217;SDS011;3142;48.206;11.550;2022-10-01T10:08:21;2.00;;;1.90;;
6217;SDS011;3142;48.206;11.550;2022-10-01T10:10:53;2.17;;;1.97;;
6217;SDS011;3142;48.206;11.550;2022-10-01T10:13:26;2.53;;;1.70;;
6217;SDS011;3142;48.206;11.550;2022-10-01T10:15:59;1.80;;;1.70;;
6217;SDS011;3142;48.206;11.550;2022-10-01T10:18:36;2.10;;;1.90;;
6217;SDS011;3142;48.206;11.550;2022-10-01T10:21:06;2.23;;;2.03;;
6217;SDS011;3142;48.206;11.550;2022-10-01T10:23:45;3.00;;;1.67;;
6217;SDS011;3142;48.206;11.550;2022-10-01T10:26:16;2.43;;;1.70;;
6217;SDS011;3142;48.206;11.550;2022-10-01T10:28:45;2.07;;;1.87;;
6217;SDS011;3142;48.206;11.550;2022-10-01T10:31:13;1.93;;;1.73;;
6217;SDS011;3142;48.206;11.550;2022-10-01T10:33:47;2.73;;;1.90;;
6217;SDS011;3142;48.206;11.550;2022-10-01T10:36:17;2.90;;;2.27;;
6217;SDS011;3142;48.206;11.550;2022-10-01T10:38:45;3.50;;;2.00;;
6217;SDS011;3142;48.206;11.550;2022-10-01T10:41:14;3.13;;;2.17;;
6217;SDS011;3142;48.206;11.550;2022-10-01T10:43:44;3.63;;;2.13;;
6217;SDS011;3142;48.206;11.550;2022-10-01T10:46:18;2.27;;;2.07;;
6217;SDS011;3142;48.206;11.550;2022-10-01T10:48:48;2.30;;;2.00;;
6217;SDS011;3142;48.206;11.550;2022-10-01T10:51:22;2.30;;;2.10;;
6217;SDS011;3142;48.206;11.550;2022-10-01T10:53:50;2.83;;;2.00;;
6217;SDS011;3142;48.206;11.550;2022-10-01T10:56:17;3.83;;;2.50;;
6217;SDS011;3142;48.206;11.550;2022-10-01T10:58:47;5.80;;;2.20;;
6217;SDS011;3142;48.206;11.550;2022-10-01T11:01:14;2.80;;;2.10;;
6217;SDS011;3142;48.206;11.550;2022-10-01T11:03:45;2.50;;;2.30;;
6217;SDS011;3142;48.206;11.550;2022-10-01T11:06:15;2.30;;;2.00;;
6217;SDS011;3142;48.206;11.550;2022-10-01T11:08:43;2.67;;;2.40;;
6217;SDS011;3142;48.206;11.550;2022-10-01T11:11:24;3.23;;;2.07;;
6217;SDS011;3142;48.206;11.550;2022-10-01T11:14:05;4.90;;;2.57;;
6217;SDS011;3142;48.206;11.550;2022-10-01T11:16:50;2.50;;;2.23;;
6217;SDS011;3142;48.206;11.550;2022-10-01T11:19:34;3.90;;;2.70;;
6217;SDS011;3142;48.206;11.550;2022-10-01T11:22:13;6.20;;;2.97;;
6217;SDS011;3142;48.206;11.550;2022-10-01T11:24:59;2.97;;;2.27;;
6217;SDS011;3142;48.206;11.550;2022-10-01T11:27:42;3.13;;;2.80;;
6217;SDS011;3142;48.206;11.550;2022-10-01T11:30:18;5.07;;;3.90;;
6217;SDS011;3142;48.206;11.550;2022-10-01T11:32:48;3.43;;;2.90;;
6217;SDS011;3142;48.206;11.550;2022-10-01T11:35:38;4.93;;;3.10;;
6217;SDS011;3142;48.206;11.550;2022-10-01T11:38:18;4.60;;;3.20;;
6217;SDS011;3142;48.206;11.550;2022-10-01T11:41:02;2.80;;;2.60;;
6217;SDS011;3142;48.206;11.550;2022-10-01T11:43:35;2.87;;;2.50;;
6217;SDS011;3142;48.206;11.550;2022-10-01T11:46:05;2.77;;;2.10;;
6217;SDS011;3142;48.206;11.550;2022-10-01T11:48:38;3.97;;;3.47;;
6217;SDS011;3142;48.206;11.550;2022-10-01T11:51:09;27.57;;;17.17;;
6217;SDS011;3142;48.206;11.550;2022-10-01T11:53:42;4.07;;;3.07;;
6217;SDS011;3142;48.206;11.550;2022-10-01T11:56:15;2.63;;;2.30;;
6217;SDS011;3142;48.206;11.550;2022-10-01T11:59:03;2.67;;;2.30;;
6217;SDS011;3142;48.206;11.550;2022-10-01T12:01:34;2.90;;;2.60;;
6217;SDS011;3142;48.206;11.550;2022-10-01T12:04:08;3.80;;;2.90;;
6217;SDS011;3142;48.206;11.550;2022-10-01T12:06:43;3.73;;;2.40;;
6217;SDS011;3142;48.206;11.550;2022-10-01T12:09:21;2.50;;;2.30;;
6217;SDS011;3142;48.206;11.550;2022-10-01T12:11:54;2.50;;;2.30;;
6217;SDS011;3142;48.206;11.550;2022-10-01T12:14:26;4.17;;;3.30;;
6217;SDS011;3142;48.206;11.550;2022-10-01T12:16:57;5.47;;;4.30;;
6217;SDS011;3142;48.206;11.550;2022-10-01T12:19:30;4.80;;;3.57;;
6217;SDS011;3142;48.206;11.550;2022-10-01T12:22:00;3.20;;;2.90;;
6217;SDS011;3142;48.206;11.550;2022-10-01T12:24:34;3.77;;;2.80;;
6217;SDS011;3142;48.206;11.550;2022-10-01T12:27:24;4.30;;;2.83;;
6217;SDS011;3142;48.206;11.550;2022-10-01T12:29:59;6.03;;;3.27;;
6217;SDS011;3142;48.206;11.550;2022-10-01T12:32:31;3.63;;;2.67;;
6217;SDS011;3142;48.206;11.550;2022-10-01T12:35:07;2.63;;;2.43;;
6217;SDS011;3142;48.206;11.550;2022-10-01T12:37:50;3.13;;;2.83;;
6217;SDS011;3142;48.206;11.550;2022-10-01T12:40:30;3.07;;;2.30;;
6217;SDS011;3142;48.206;11.550;2022-10-01T12:43:07;3.40;;;2.77;;
6217;SDS011;3142;48.206;11.550;2022-10-01T12:45:49;2.67;;;2.20;;
6217;SDS011;3142;48.206;11.550;2022-10-01T12:48:27;2.80;;;2.60;;
6217;SDS011;3142;48.206;11.550;2022-10-01T12:51:06;3.00;;;2.63;;
6217;SDS011;3142;48.206;11.550;2022-10-01T12:53:45;2.87;;;2.20;;
6217;SDS011;3142;48.206;11.550;2022-10-01T12:56:26;3.33;;;2.20;;
6217;SDS011;3142;48.206;11.550;2022-10-01T13:01:54;2.53;;;2.03;;
6217;SDS011;3142;48.206;11.550;2022-10-01T13:07:25;2.30;;;2.10;;
6217;SDS011;3142;48.206;11.550;2022-10-01T13:10:07;4.50;;;2.27;;
6217;SDS011;3142;48.206;11.550;2022-10-01T13:12:47;2.53;;;2.17;;
6217;SDS011;3142;48.206;11.550;2022-10-01T13:15:24;2.80;;;2.30;;
6217;SDS011;3142;48.206;11.550;2022-10-01T13:17:56;3.10;;;2.80;;
6217;SDS011;3142;48.206;11.550;2022-10-01T13:20:28;3.00;;;2.70;;
6217;SDS011;3142;48.206;11.550;2022-10-01T13:23:06;2.33;;;1.93;;
6217;SDS011;3142;48.206;11.550;2022-10-01T13:25:39;3.57;;;2.47;;
6217;SDS011;3142;48.206;11.550;2022-10-01T13:28:16;2.37;;;2.00;;
6217;SDS011;3142;48.206;11.550;2022-10-01T13:30:53;2.17;;;1.97;;
6217;SDS011;3142;48.206;11.550;2022-10-01T13:33:25;2.03;;;1.63;;
6217;SDS011;3142;48.206;11.550;2022-10-01T13:35:54;2.80;;;1.80;;
6217;SDS011;3142;48.206;11.550;2022-10-01T13:38:26;3.70;;;1.80;;
6217;SDS011;3142;48.206;11.550;2022-10-01T13:40:55;1.70;;;1.60;;
6217;SDS011;3142;48.206;11.550;2022-10-01T13:43:25;2.60;;;1.77;;
6217;SDS011;3142;48.206;11.550;2022-10-01T13:45:53;1.90;;;1.70;;
6217;SDS011;3142;48.206;11.550;2022-10-01T13:48:21;1.33;;;1.27;;
6217;SDS011;3142;48.206;11.550;2022-10-01T13:50:57;1.73;;;1.63;;
6217;SDS011;3142;48.206;11.550;2022-10-01T13:53:27;3.03;;;1.73;;
6217;SDS011;3142;48.206;11.550;2022-10-01T13:55:55;2.73;;;1.80;;
6217;SDS011;3142;48.206;11.550;2022-10-01T13:58:23;2.47;;;1.90;;
6217;SDS011;3142;48.206;11.550;2022-10-01T14:01:00;1.70;;;1.50;;
6217;SDS011;3142;48.206;11.550;2022-10-01T14:03:41;2.50;;;1.70;;
6217;SDS011;3142;48.206;11.550;2022-10-01T14:06:14;2.00;;;1.80;;
6217;SDS011;3142;48.206;11.550;2022-10-01T14:08:46;1.60;;;1.50;;
6217;SDS011;3142;48.206;11.550;2022-10-01T14:11:16;2.00;;;1.80;;
6217;SDS011;3142;48.206;11.550;2022-10-01T14:14:11;2.17;;;1.83;;
6217;SDS011;3142;48.206;11.550;2022-10-01T14:17:02;1.77;;;1.67;;
6217;SDS011;3142;48.206;11.550;2022-10-01T14:19:30;2.20;;;1.43;;
6217;SDS011;3142;48.206;11.550;2022-10-01T14:22:04;1.60;;;1.50;;
6217;SDS011;3142;48.206;11.550;2022-10-01T14:24:44;1.70;;;1.60;;
6217;SDS011;3142;48.206;11.550;2022-10-01T14:27:24;3.80;;;2.90;;
6217;SDS011;3142;48.206;11.550;2022-10-01T14:30:00;1.33;;;1.20;;
6217;SDS011;3142;48.206;11.550;2022-10-01T14:32:33;1.83;;;1.30;;
6217;SDS011;3142;48.206;11.550;2022-10-01T14:35:23;1.83;;;1.73;;
6217;SDS011;3142;48.206;11.550;2022-10-01T14:37:56;1.47;;;1.37;;
6217;SDS011;3142;48.206;11.550;2022-10-01T14:40:24;1.67;;;1.20;;
6217;SDS011;3142;48.206;11.550;2022-10-01T14:42:57;1.40;;;1.30;;
6217;SDS011;3142;48.206;11.550;2022-10-01T14:45:25;1.40;;;1.30;;
6217;SDS011;3142;48.206;11.550;2022-10-01T14:47:59;1.40;;;1.30;;
6217;SDS011;3142;48.206;11.550;2022-10-01T14:50:27;1.80;;;1.50;;
6217;SDS011;3142;48.206;11.550;2022-10-01T14:52:56;2.30;;;1.50;;
6217;SDS011;3142;48.206;11.550;2022-10-01T14:55:23;1.60;;;1.50;;
6217;SDS011;3142;48.206;11.550;2022-10-01T14:57:52;2.50;;;2.20;;
6217;SDS011;3142;48.206;11.550;2022-10-01T15:00:21;6.00;;;3.70;;
6217;SDS011;3142;48.206;11.550;2022-10-01T15:02:51;5.73;;;3.27;;
6217;SDS011;3142;48.206;11.550;2022-10-01T15:05:27;2.57;;;2.37;;
6217;SDS011;3142;48.206;11.550;2022-10-01T15:07:55;2.27;;;2.03;;
6217;SDS011;3142;48.206;11.550;2022-10-01T15:10:23;3.37;;;1.90;;
6217;SDS011;3142;48.206;11.550;2022-10-01T15:12:52;3.07;;;1.83;;
6217;SDS011;3142;48.206;11.550;2022-10-01T15:15:20;2.90;;;1.90;;
6217;SDS011;3142;48.206;11.550;2022-10-01T15:18:01;2.20;;;2.00;;
6217;SDS011;3142;48.206;11.550;2022-10-01T15:20:28;2.90;;;2.37;;
6217;SDS011;3142;48.206;11.550;2022-10-01T15:22:55;2.23;;;2.00;;
6217;SDS011;3142;48.206;11.550;2022-10-01T15:25:22;2.10;;;1.90;;
6217;SDS011;3142;48.206;11.550;2022-10-01T15:27:52;1.77;;;1.67;;